createdAt,value
2023-05-27T00:00:28.552Z,87.46
2023-05-27T00:02:55.497Z,87.56
2023-05-27T00:05:22.518Z,87.46
2023-05-27T00:07:49.385Z,87.79
2023-05-27T00:10:16.359Z,87.57
2023-05-27T00:12:43.207Z,87.98
2023-05-27T00:15:10.612Z,87.99
2023-05-27T00:17:37.565Z,87.68
2023-05-27T00:20:09.133Z,87.64
2023-05-27T00:22:36.356Z,88.41
2023-05-27T00:25:03.696Z,88.60
2023-05-27T00:27:30.680Z,88.69
2023-05-27T00:29:57.593Z,88.58
2023-05-27T00:32:24.861Z,88.24
2023-05-27T00:34:51.796Z,88.67
2023-05-27T00:37:18.703Z,88.71
2023-05-27T00:39:45.580Z,88.46
2023-05-27T00:42:13.604Z,88.66
2023-05-27T00:44:40.888Z,88.46
2023-05-27T00:47:07.974Z,88.44
2023-05-27T00:49:34.930Z,88.66
2023-05-27T00:52:02.129Z,88.60
2023-05-27T00:54:31.139Z,88.66
2023-05-27T00:56:58.271Z,88.85
2023-05-27T00:59:25.203Z,89.28
2023-05-27T01:01:53.209Z,89.33
2023-05-27T01:04:20.807Z,89.90
2023-05-27T01:07:03.209Z,90.04
2023-05-27T01:09:46.162Z,90.09
2023-05-27T01:12:26.583Z,90.14
2023-05-27T01:14:58.192Z,90.21
2023-05-27T01:17:28.365Z,90.34
2023-05-27T01:19:57.496Z,90.60
2023-05-27T01:22:30.224Z,90.76
2023-05-27T01:24:57.428Z,90.68
2023-05-27T01:27:27.557Z,90.86
2023-05-27T01:29:55.016Z,90.99
2023-05-27T01:32:44.209Z,90.88
2023-05-27T01:35:25.374Z,91.05
2023-05-27T01:37:56.796Z,91.22
2023-05-27T01:40:25.044Z,91.23
2023-05-27T01:42:53.461Z,91.20
2023-05-27T01:45:21.029Z,90.85
2023-05-27T01:47:47.909Z,91.27
2023-05-27T01:50:15.615Z,90.90
2023-05-27T01:52:42.476Z,90.97
2023-05-27T01:55:09.930Z,91.12
2023-05-27T01:57:37.398Z,91.25
2023-05-27T02:00:06.455Z,91.23
2023-05-27T02:02:43.927Z,91.14
2023-05-27T02:05:13.823Z,91.41
2023-05-27T02:07:40.779Z,91.51
2023-05-27T02:10:08.421Z,91.59
2023-05-27T02:12:35.390Z,91.77
2023-05-27T02:15:04.422Z,91.77
2023-05-27T02:17:31.389Z,91.64
2023-05-27T02:19:58.395Z,91.65
2023-05-27T02:22:25.296Z,91.95
2023-05-27T02:24:52.271Z,91.66
2023-05-27T02:27:19.169Z,91.75
2023-05-27T02:29:46.021Z,91.84
2023-05-27T02:32:13.100Z,91.88
2023-05-27T02:34:43.460Z,91.81
2023-05-27T02:37:11.955Z,91.99
2023-05-27T02:39:39.965Z,91.98
2023-05-27T02:42:07.885Z,92.35
2023-05-27T02:44:34.763Z,92.41
2023-05-27T02:47:01.762Z,92.50
2023-05-27T02:49:28.772Z,92.72
2023-05-27T02:51:56.180Z,92.58
2023-05-27T02:54:23.009Z,92.81
2023-05-27T02:56:49.960Z,92.97
2023-05-27T02:59:16.884Z,93.22
2023-05-27T03:01:43.930Z,92.66
2023-05-27T03:04:11.553Z,93.03
2023-05-27T03:06:38.661Z,93.12
2023-05-27T03:09:05.815Z,93.07
2023-05-27T03:11:32.709Z,93.27
2023-05-27T03:13:59.825Z,93.34
2023-05-27T03:16:26.705Z,93.40
2023-05-27T03:18:53.564Z,93.46
2023-05-27T03:21:20.469Z,93.14
2023-05-27T03:23:47.622Z,93.29
2023-05-27T03:26:14.513Z,93.35
2023-05-27T03:28:41.671Z,93.70
2023-05-27T03:31:09.912Z,93.58
2023-05-27T03:33:51.944Z,93.70
2023-05-27T03:36:19.167Z,93.91
2023-05-27T03:38:46.910Z,94.01
2023-05-27T03:41:14.610Z,94.11
2023-05-27T03:43:41.548Z,94.35
2023-05-27T03:46:09.933Z,94.43
2023-05-27T03:48:36.891Z,94.44
2023-05-27T03:51:03.945Z,94.54
2023-05-27T03:53:31.270Z,94.33
2023-05-27T03:55:58.146Z,94.38
2023-05-27T03:58:24.960Z,94.63
2023-05-27T04:00:52.908Z,94.42
2023-05-27T04:03:20.262Z,94.50
2023-05-27T04:05:47.403Z,94.20
2023-05-27T04:08:14.428Z,94.08
2023-05-27T04:10:42.048Z,94.04
2023-05-27T04:13:08.951Z,94.15
2023-05-27T04:15:35.949Z,94.06
2023-05-27T04:18:03.549Z,94.03
2023-05-27T04:20:38.693Z,94.10
2023-05-27T04:23:06.848Z,94.14
2023-05-27T04:25:35.763Z,94.33
2023-05-27T04:28:06.729Z,94.29
2023-05-27T04:30:37.050Z,94.30
2023-05-27T04:33:10.804Z,94.14
2023-05-27T04:35:38.250Z,94.25
2023-05-27T04:38:05.152Z,94.18
2023-05-27T04:40:46.352Z,94.04
2023-05-27T04:43:32.235Z,94.27
2023-05-27T04:46:00.809Z,94.06
2023-05-27T04:48:28.332Z,93.70
2023-05-27T04:50:55.296Z,93.89
2023-05-27T04:53:22.676Z,93.68
2023-05-27T04:55:50.730Z,93.49
2023-05-27T04:58:18.127Z,93.36
2023-05-27T05:00:51.942Z,92.47
2023-05-27T05:03:23.654Z,91.56
2023-05-27T05:05:55.036Z,90.39
2023-05-27T05:08:23.237Z,89.60
2023-05-27T05:10:53.179Z,89.57
2023-05-27T05:13:20.766Z,89.67
2023-05-27T05:15:48.468Z,89.59
2023-05-27T05:18:15.473Z,89.92
2023-05-27T05:20:43.052Z,89.86
2023-05-27T05:23:13.126Z,89.27
2023-05-27T05:25:41.080Z,89.57
2023-05-27T05:28:08.840Z,89.34
2023-05-27T05:30:37.664Z,89.32
2023-05-27T05:33:05.847Z,89.17
2023-05-27T05:35:33.862Z,89.09
2023-05-27T05:38:19.988Z,88.73
2023-05-27T05:40:53.551Z,88.58
2023-05-27T05:43:21.382Z,88.07
2023-05-27T05:45:49.362Z,87.67
2023-05-27T05:48:19.143Z,86.95
2023-05-27T05:50:46.123Z,86.75
2023-05-27T05:53:14.012Z,86.76
2023-05-27T05:55:42.103Z,86.72
2023-05-27T05:58:09.150Z,86.36
2023-05-27T06:00:36.689Z,85.18
2023-05-27T06:03:23.634Z,84.67
2023-05-27T06:05:54.628Z,84.50
2023-05-27T06:08:21.906Z,83.80
2023-05-27T06:10:57.809Z,82.57
2023-05-27T06:13:25.028Z,82.45
2023-05-27T06:15:56.735Z,81.61
2023-05-27T06:18:24.322Z,80.53
2023-05-27T06:20:51.573Z,79.12
2023-05-27T06:23:20.258Z,78.39
2023-05-27T06:26:04.447Z,78.97
2023-05-27T06:28:37.072Z,77.32
2023-05-27T06:31:04.437Z,76.22
2023-05-27T06:33:31.363Z,75.98
2023-05-27T06:35:58.358Z,77.21
2023-05-27T06:38:25.350Z,77.16
2023-05-27T06:40:54.490Z,77.18
2023-05-27T06:43:21.459Z,76.49
2023-05-27T06:46:03.829Z,76.06
2023-05-27T06:48:54.536Z,75.66
2023-05-27T06:51:22.524Z,75.68
2023-05-27T06:53:49.453Z,76.02
2023-05-27T06:56:21.849Z,75.05
2023-05-27T06:59:07.479Z,74.89
2023-05-27T07:01:34.526Z,75.21
2023-05-27T07:04:05.123Z,76.19
2023-05-27T07:07:04.561Z,76.48
2023-05-27T07:09:31.699Z,74.33
2023-05-27T07:11:58.951Z,74.74
2023-05-27T07:14:46.673Z,76.49
2023-05-27T07:17:13.971Z,75.41
2023-05-27T07:19:40.801Z,74.73
2023-05-27T07:22:12.488Z,74.82
2023-05-27T07:24:39.502Z,74.07
2023-05-27T07:27:06.573Z,72.61
2023-05-27T07:29:35.097Z,72.15
2023-05-27T07:32:18.382Z,72.01
2023-05-27T07:34:45.448Z,71.68
2023-05-27T07:37:12.460Z,71.32
2023-05-27T07:39:39.445Z,70.80
2023-05-27T07:42:06.983Z,70.63
2023-05-27T07:44:33.925Z,70.73
2023-05-27T07:47:02.034Z,71.29
2023-05-27T07:49:29.177Z,70.45
2023-05-27T07:52:09.937Z,70.95
2023-05-27T07:54:43.535Z,71.28
2023-05-27T07:57:17.842Z,70.36
2023-05-27T07:59:44.997Z,67.86
2023-05-27T08:02:12.950Z,68.03
2023-05-27T08:04:45.183Z,67.77
2023-05-27T08:07:38.879Z,67.87
2023-05-27T08:10:23.308Z,68.38
2023-05-27T08:13:19.328Z,67.69
2023-05-27T08:16:15.798Z,64.72
2023-05-27T08:18:55.629Z,65.29
2023-05-27T08:21:42.482Z,64.88
2023-05-27T08:24:45.000Z,63.39
2023-05-27T08:28:03.292Z,65.33
2023-05-27T08:30:56.352Z,64.11
2023-05-27T08:33:46.686Z,63.79
2023-05-27T08:36:16.330Z,62.76
2023-05-27T08:38:46.667Z,64.17
2023-05-27T08:41:19.606Z,62.66
2023-05-27T08:43:47.414Z,61.97
2023-05-27T08:46:16.414Z,63.19
2023-05-27T08:48:44.457Z,62.87
2023-05-27T08:51:13.876Z,61.82
2023-05-27T08:53:41.055Z,62.98
2023-05-27T08:56:10.151Z,63.91
2023-05-27T08:58:42.755Z,62.72
2023-05-27T09:01:11.061Z,60.49
2023-05-27T09:03:38.673Z,59.79
2023-05-27T09:06:05.867Z,59.86
2023-05-27T09:08:49.032Z,58.66
2023-05-27T09:11:29.463Z,59.71
2023-05-27T09:13:57.316Z,60.35
2023-05-27T09:16:24.625Z,59.58
2023-05-27T09:18:51.773Z,58.46
2023-05-27T09:21:18.888Z,55.07
2023-05-27T09:23:46.486Z,54.70
2023-05-27T09:26:14.455Z,54.82
2023-05-27T09:28:41.619Z,56.82
2023-05-27T09:31:10.295Z,57.06
2023-05-27T09:33:39.805Z,58.06
2023-05-27T09:36:09.530Z,55.12
2023-05-27T09:38:37.708Z,56.44
2023-05-27T09:41:04.842Z,55.51
2023-05-27T09:43:32.241Z,56.54
2023-05-27T09:46:04.755Z,56.57
2023-05-27T09:48:32.816Z,54.88
2023-05-27T09:51:04.548Z,54.64
2023-05-27T09:53:32.250Z,55.12
2023-05-27T09:55:59.292Z,52.95
2023-05-27T09:58:26.457Z,55.65
2023-05-27T10:00:56.736Z,54.27
2023-05-27T10:03:29.715Z,54.64
2023-05-27T10:05:57.235Z,52.29
2023-05-27T10:08:26.455Z,52.88
2023-05-27T10:10:55.050Z,51.46
2023-05-27T10:13:23.362Z,49.33
2023-05-27T10:15:53.679Z,50.87
2023-05-27T10:18:29.688Z,49.58
2023-05-27T10:20:59.255Z,50.25
2023-05-27T10:23:32.338Z,51.95
2023-05-27T10:26:11.910Z,50.26
2023-05-27T10:28:41.752Z,49.62
2023-05-27T10:31:10.823Z,49.87
2023-05-27T10:33:39.810Z,48.44
2023-05-27T10:36:15.291Z,47.89
2023-05-27T10:38:42.971Z,48.22
2023-05-27T10:41:10.480Z,47.91
2023-05-27T10:43:37.801Z,46.83
2023-05-27T10:46:12.953Z,46.92
2023-05-27T10:48:42.953Z,47.66
2023-05-27T10:51:12.647Z,46.65
2023-05-27T10:53:40.066Z,46.11
2023-05-27T10:56:07.767Z,46.60
2023-05-27T10:58:39.027Z,47.38
2023-05-27T11:01:12.777Z,46.69
2023-05-27T11:03:47.422Z,45.18
2023-05-27T11:06:16.497Z,44.04
2023-05-27T11:08:43.765Z,44.06
2023-05-27T11:11:12.176Z,43.50
2023-05-27T11:13:48.425Z,42.60
2023-05-27T11:16:17.389Z,41.72
2023-05-27T11:18:49.183Z,43.65
2023-05-27T11:21:17.609Z,41.93
2023-05-27T11:23:46.824Z,41.63
2023-05-27T11:26:17.378Z,39.51
2023-05-27T11:28:54.698Z,39.54
2023-05-27T11:31:23.784Z,38.64
2023-05-27T11:33:52.184Z,38.01
2023-05-27T11:36:19.656Z,39.19
2023-05-27T11:39:00.730Z,38.18
2023-05-27T11:41:30.222Z,40.96
2023-05-27T11:44:07.791Z,40.33
2023-05-27T11:46:45.678Z,37.45
2023-05-27T11:49:14.705Z,36.76
2023-05-27T11:51:43.941Z,37.39
2023-05-27T11:54:20.347Z,37.42
2023-05-27T11:56:48.860Z,38.29
2023-05-27T11:59:16.104Z,36.33
2023-05-27T12:01:43.921Z,36.10
2023-05-27T12:04:11.214Z,35.08
2023-05-27T12:06:38.957Z,34.39
2023-05-27T12:09:06.681Z,32.71
2023-05-27T12:11:34.605Z,31.34
2023-05-27T12:14:02.175Z,30.90
2023-05-27T12:16:29.181Z,32.33
2023-05-27T12:18:56.412Z,31.98
2023-05-27T12:21:23.316Z,31.30
2023-05-27T12:23:50.430Z,31.41
2023-05-27T12:26:17.902Z,30.96
2023-05-27T12:28:46.333Z,30.80
2023-05-27T12:31:13.377Z,31.86
2023-05-27T12:33:40.286Z,30.53
2023-05-27T12:36:07.444Z,30.68
2023-05-27T12:38:34.840Z,30.84
2023-05-27T12:41:01.979Z,31.04
2023-05-27T12:43:28.860Z,27.86
2023-05-27T12:45:55.772Z,26.92
2023-05-27T12:48:23.624Z,27.72
2023-05-27T12:50:50.602Z,29.63
2023-05-27T12:53:17.989Z,27.80
2023-05-27T12:55:46.022Z,29.49
2023-05-27T12:58:12.935Z,29.49
2023-05-27T13:00:39.884Z,26.91
2023-05-27T13:03:06.862Z,24.36
2023-05-27T13:05:33.852Z,26.04
2023-05-27T13:08:08.295Z,26.92
2023-05-27T13:10:35.277Z,25.69
2023-05-27T13:13:03.307Z,26.48
2023-05-27T13:15:31.049Z,26.03
2023-05-27T13:18:00.367Z,26.27
2023-05-27T13:20:31.280Z,25.18
2023-05-27T13:23:02.522Z,25.41
2023-05-27T13:25:31.351Z,24.65
2023-05-27T13:27:58.930Z,24.12
2023-05-27T13:30:27.252Z,24.31
2023-05-27T13:32:55.270Z,27.90
2023-05-27T13:35:22.634Z,26.89
2023-05-27T13:37:50.209Z,25.42
2023-05-27T13:40:22.771Z,23.96
2023-05-27T13:42:49.882Z,23.93
2023-05-27T13:45:16.922Z,23.22
2023-05-27T13:47:45.773Z,23.63
2023-05-27T13:50:12.823Z,25.62
2023-05-27T13:52:40.378Z,24.28
2023-05-27T13:55:08.019Z,26.26
2023-05-27T13:57:34.927Z,26.16
2023-05-27T14:00:01.868Z,27.34
2023-05-27T14:02:31.377Z,27.05
2023-05-27T14:04:58.268Z,27.09
2023-05-27T14:07:25.342Z,25.54
2023-05-27T14:09:52.258Z,27.37
2023-05-27T14:12:19.209Z,25.60
2023-05-27T14:14:46.159Z,26.24
2023-05-27T14:17:13.100Z,26.48
2023-05-27T14:19:40.049Z,26.54
2023-05-27T14:22:06.913Z,26.01
2023-05-27T14:24:33.888Z,23.91
2023-05-27T14:27:03.084Z,22.84
2023-05-27T14:29:30.622Z,24.29
2023-05-27T14:31:57.670Z,26.07
2023-05-27T14:34:24.624Z,25.74
2023-05-27T14:36:51.850Z,26.14
2023-05-27T14:39:18.878Z,24.51
2023-05-27T14:41:45.841Z,25.96
2023-05-27T14:44:12.965Z,26.88
2023-05-27T14:46:39.852Z,26.40
2023-05-27T14:49:07.193Z,25.94
2023-05-27T14:51:34.083Z,26.14
2023-05-27T14:54:00.977Z,27.27
2023-05-27T14:56:27.904Z,26.57
2023-05-27T14:58:54.748Z,26.25
2023-05-27T15:01:21.870Z,26.58
2023-05-27T15:03:48.918Z,26.30
2023-05-27T15:06:15.928Z,26.52
2023-05-27T15:08:43.172Z,26.98
2023-05-27T15:11:10.223Z,26.08
2023-05-27T15:13:37.118Z,25.48
2023-05-27T15:16:04.293Z,26.76
2023-05-27T15:18:31.713Z,27.01
2023-05-27T15:20:58.716Z,28.10
2023-05-27T15:23:25.678Z,27.13
2023-05-27T15:25:54.452Z,25.36
2023-05-27T15:28:21.662Z,26.12
2023-05-27T15:30:49.034Z,24.15
2023-05-27T15:33:16.312Z,24.23
2023-05-27T15:35:46.001Z,24.97
2023-05-27T15:38:15.882Z,26.54
2023-05-27T15:40:45.358Z,24.97
2023-05-27T15:43:12.577Z,24.15
2023-05-27T15:45:46.315Z,27.84
2023-05-27T15:48:23.157Z,27.22
2023-05-27T15:50:52.055Z,26.70
2023-05-27T15:53:18.948Z,27.18
2023-05-27T15:55:45.965Z,26.21
2023-05-27T15:58:12.809Z,27.60
2023-05-27T16:00:39.727Z,28.28
2023-05-27T16:03:06.683Z,29.91
2023-05-27T16:05:33.659Z,29.84
2023-05-27T16:08:00.767Z,34.13
2023-05-27T16:10:27.680Z,35.54
2023-05-27T16:12:54.571Z,36.54
2023-05-27T16:15:21.516Z,36.94
2023-05-27T16:17:48.642Z,38.56
2023-05-27T16:20:16.394Z,39.17
2023-05-27T16:22:43.330Z,39.80
2023-05-27T16:25:10.358Z,40.58
2023-05-27T16:27:37.306Z,40.74
2023-05-27T16:30:04.461Z,42.33
2023-05-27T16:32:31.510Z,42.31
2023-05-27T16:34:58.536Z,42.97
2023-05-27T16:37:25.568Z,42.65
2023-05-27T16:39:52.455Z,44.22
2023-05-27T16:42:20.691Z,44.18
2023-05-27T16:44:47.655Z,44.05
2023-05-27T16:47:14.587Z,42.51
2023-05-27T16:49:41.446Z,42.79
2023-05-27T16:52:08.409Z,44.69
2023-05-27T16:54:35.316Z,45.24
2023-05-27T16:57:03.657Z,44.88
2023-05-27T16:59:30.734Z,44.59
2023-05-27T17:01:57.572Z,45.54
2023-05-27T17:04:24.615Z,43.94
2023-05-27T17:06:51.493Z,44.79
2023-05-27T17:09:18.481Z,45.32
2023-05-27T17:11:45.381Z,44.93
2023-05-27T17:14:12.256Z,46.67
2023-05-27T17:16:39.210Z,45.97
2023-05-27T17:19:06.519Z,45.61
2023-05-27T17:21:33.425Z,45.70
2023-05-27T17:24:00.291Z,45.45
2023-05-27T17:26:27.630Z,46.33
2023-05-27T17:28:54.638Z,46.01
2023-05-27T17:31:21.574Z,46.84
2023-05-27T17:33:48.609Z,47.56
2023-05-27T17:36:15.525Z,48.26
2023-05-27T17:38:42.955Z,46.89
2023-05-27T17:41:11.371Z,47.32
2023-05-27T17:43:38.506Z,48.75
2023-05-27T17:46:05.577Z,47.12
2023-05-27T17:48:32.502Z,47.25
2023-05-27T17:50:59.467Z,48.59
2023-05-27T17:53:26.305Z,47.03
2023-05-27T17:55:53.257Z,48.48
2023-05-27T17:58:20.125Z,48.34
2023-05-27T18:00:48.808Z,47.98
2023-05-27T18:03:16.191Z,50.06
2023-05-27T18:05:43.314Z,47.74
2023-05-27T18:08:10.281Z,49.49
2023-05-27T18:10:38.483Z,50.65
2023-05-27T18:13:05.632Z,49.77
2023-05-27T18:15:32.491Z,51.01
2023-05-27T18:17:59.389Z,49.21
2023-05-27T18:20:26.357Z,49.98
2023-05-27T18:22:53.351Z,51.77
2023-05-27T18:25:21.012Z,54.34
2023-05-27T18:27:47.997Z,55.85
2023-05-27T18:30:14.935Z,57.16
2023-05-27T18:32:49.100Z,58.61
2023-05-27T18:35:30.493Z,59.79
2023-05-27T18:37:59.036Z,60.63
2023-05-27T18:40:27.919Z,61.05
2023-05-27T18:42:55.107Z,61.90
2023-05-27T18:45:26.832Z,62.28
2023-05-27T18:47:53.780Z,62.52
2023-05-27T18:50:31.440Z,62.86
2023-05-27T18:52:59.038Z,63.28
2023-05-27T18:55:26.048Z,63.27
2023-05-27T18:57:52.893Z,63.37
2023-05-27T19:00:19.954Z,63.87
2023-05-27T19:02:46.883Z,64.23
2023-05-27T19:05:13.854Z,64.68
2023-05-27T19:07:41.157Z,65.25
2023-05-27T19:10:08.530Z,65.66
2023-05-27T19:12:35.521Z,65.67
2023-05-27T19:15:02.940Z,66.44
2023-05-27T19:17:29.842Z,66.46
2023-05-27T19:19:56.878Z,67.01
2023-05-27T19:22:23.842Z,66.87
2023-05-27T19:24:50.729Z,67.87
2023-05-27T19:27:17.573Z,67.82
2023-05-27T19:29:44.514Z,68.21
2023-05-27T19:32:11.399Z,67.97
2023-05-27T19:34:38.225Z,68.84
2023-05-27T19:37:05.274Z,68.81
2023-05-27T19:39:32.162Z,68.60
2023-05-27T19:41:59.110Z,69.22
2023-05-27T19:44:25.994Z,69.25
2023-05-27T19:46:55.029Z,69.78
2023-05-27T19:49:22.645Z,69.65
2023-05-27T19:51:49.555Z,70.21
2023-05-27T19:54:16.554Z,70.06
2023-05-27T19:56:43.441Z,70.71
2023-05-27T19:59:10.933Z,70.87
2023-05-27T20:01:37.868Z,71.21
2023-05-27T20:04:05.089Z,71.42
2023-05-27T20:06:34.798Z,71.61
2023-05-27T20:09:01.543Z,71.56
2023-05-27T20:11:28.967Z,71.88
2023-05-27T20:13:55.840Z,72.20
2023-05-27T20:16:22.850Z,72.18
2023-05-27T20:18:49.790Z,72.44
2023-05-27T20:21:16.777Z,72.34
2023-05-27T20:23:43.742Z,72.69
2023-05-27T20:26:10.704Z,72.70
2023-05-27T20:28:38.413Z,73.16
2023-05-27T20:31:05.440Z,73.89
2023-05-27T20:33:32.461Z,74.06
2023-05-27T20:35:59.351Z,74.59
2023-05-27T20:38:27.713Z,75.79
2023-05-27T20:40:54.758Z,75.71
2023-05-27T20:43:21.730Z,75.68
2023-05-27T20:45:48.624Z,75.33
2023-05-27T20:48:15.774Z,75.64
2023-05-27T20:50:42.713Z,75.52
2023-05-27T20:53:09.908Z,75.37
2023-05-27T20:55:36.933Z,75.42
2023-05-27T20:58:05.260Z,75.74
2023-05-27T21:00:32.137Z,75.53
2023-05-27T21:02:59.464Z,75.75
2023-05-27T21:05:26.399Z,75.13
2023-05-27T21:07:53.530Z,75.59
2023-05-27T21:10:20.622Z,75.38
2023-05-27T21:12:47.541Z,75.23
2023-05-27T21:15:14.539Z,75.35
2023-05-27T21:17:41.699Z,75.51
2023-05-27T21:20:09.291Z,74.87
2023-05-27T21:22:37.004Z,75.44
2023-05-27T21:25:10.812Z,75.93
2023-05-27T21:27:37.959Z,76.20
2023-05-27T21:30:07.205Z,75.74
2023-05-27T21:32:34.179Z,75.34
2023-05-27T21:35:01.171Z,75.50
2023-05-27T21:37:28.058Z,75.50
2023-05-27T21:39:55.001Z,75.38
2023-05-27T21:42:23.096Z,75.73
2023-05-27T21:44:51.282Z,76.25
2023-05-27T21:47:18.233Z,76.76
2023-05-27T21:49:45.259Z,76.39
2023-05-27T21:52:12.282Z,76.67
2023-05-27T21:54:39.586Z,76.55
2023-05-27T21:57:08.105Z,76.81
2023-05-27T21:59:35.285Z,77.18
2023-05-27T22:02:02.375Z,77.15
2023-05-27T22:04:29.299Z,77.50
2023-05-27T22:06:56.266Z,77.75
2023-05-27T22:09:23.140Z,77.59
2023-05-27T22:11:50.084Z,77.58
2023-05-27T22:14:17.052Z,77.91
2023-05-27T22:16:44.180Z,78.12
2023-05-27T22:19:11.119Z,78.12
2023-05-27T22:21:37.946Z,78.05
2023-05-27T22:24:05.127Z,77.65
2023-05-27T22:26:32.008Z,77.68
2023-05-27T22:29:00.047Z,78.27
2023-05-27T22:31:29.078Z,78.17
2023-05-27T22:33:56.223Z,78.32
2023-05-27T22:36:23.185Z,78.16
2023-05-27T22:38:50.104Z,78.18
2023-05-27T22:41:17.029Z,78.19
2023-05-27T22:43:43.905Z,78.93
2023-05-27T22:46:12.477Z,78.84
2023-05-27T22:48:39.370Z,79.38
2023-05-27T22:51:06.247Z,79.46
2023-05-27T22:53:33.120Z,79.55
2023-05-27T22:55:59.996Z,79.36
2023-05-27T22:58:26.876Z,79.25
2023-05-27T23:00:53.737Z,79.33
2023-05-27T23:03:20.698Z,79.54
2023-05-27T23:05:47.747Z,79.76
2023-05-27T23:08:14.639Z,79.81
2023-05-27T23:10:41.508Z,80.09
2023-05-27T23:13:08.467Z,80.41
2023-05-27T23:15:35.663Z,80.47
2023-05-27T23:18:02.604Z,80.25
2023-05-27T23:20:29.477Z,80.26
2023-05-27T23:22:56.442Z,80.89
2023-05-27T23:25:23.350Z,80.64
2023-05-27T23:27:50.377Z,80.64
2023-05-27T23:30:17.441Z,80.47
2023-05-27T23:32:44.514Z,80.58
2023-05-27T23:35:11.754Z,80.53
2023-05-27T23:37:38.763Z,81.00
2023-05-27T23:40:06.978Z,81.09
2023-05-27T23:42:33.973Z,80.94
2023-05-27T23:45:00.946Z,81.39
2023-05-27T23:47:27.879Z,81.68
2023-05-27T23:49:54.937Z,81.71
2023-05-27T23:52:22.102Z,81.91
2023-05-27T23:54:48.996Z,81.79
2023-05-27T23:57:16.028Z,82.28
2023-05-27T23:59:42.911Z,82.81
